This is the latest recevied weather packets stored in our database for station/object OE-11369. If no packets are shown the sender has not sent any weather packets the latest 10 day(s).
| Time | Temp. | Humidity | Pressure | Rain* | Wind** | Luminosity | Snow |
|---|---|---|---|---|---|---|---|
| 1787837102 | 31.67° C | 41% | 1009.7 hPa | - | - | - | - |
| 1787836275 | 31.67° C | 39% | 1009.7 hPa | - | - | - | - |
| 1787835901 | 31.11° C | 41% | 1009.9 hPa | - | - | - | - |
| 1787835302 | 30.56° C | 42% | 1010.3 hPa | - | - | - | - |
| 1787834475 | 30.56° C | 42% | 1010.3 hPa | - | - | - | - |
| 1787834101 | 30° C | 44% | 1010.5 hPa | - | - | - | - |
| 1787833502 | 30° C | 44% | 1010.6 hPa | - | - | - | - |
| 1787832675 | 30° C | 43% | 1010.8 hPa | - | - | - | - |
| 1787832302 | 30° C | 45% | 1010.8 hPa | - | - | - | - |
| 1787831701 | 28.89° C | 45% | 1011.2 hPa | - | - | - | - |
| 1787830875 | 28.89° C | 46% | 1011.2 hPa | - | - | - | - |
| 1787830501 | 28.89° C | 48% | 1011.4 hPa | - | - | - | - |
| 1787829901 | 28.89° C | 46% | 1011.4 hPa | - | - | - | - |
| 1787829075 | 28.33° C | 49% | 1011.8 hPa | - | - | - | - |
| 1787828702 | 27.78° C | 48% | 1011.9 hPa | - | - | - | - |
| 1787828102 | 27.78° C | 48% | 1012.1 hPa | - | - | - | - |
| 1787827274 | 27.78° C | 51% | 1012 hPa | - | - | - | - |
| 1787826901 | 27.22° C | 49% | 1012.2 hPa | - | - | - | - |
| 1787826302 | 26.67° C | 51% | 1012.2 hPa | - | - | - | - |
| 1787825475 | 26.67° C | 51% | 1012.2 hPa | - | - | - | - |
| 1787825102 | 26.11° C | 54% | 1012.2 hPa | - | - | - | - |
| 1787824502 | 25.56° C | 54% | 1012.5 hPa | - | - | - | - |
| 1787823675 | 25° C | 58% | 1012.6 hPa | - | - | - | - |
| 1787823302 | 24.44° C | 56% | 1012.8 hPa | - | - | - | - |
| 1787822701 | 24.44° C | 55% | 1012.9 hPa | - | - | - | - |
* Rain since midnight (hover to see other rain measurements)
** Current wind speed in m/s (hover to see current wind gust speed)